createdAt,value
2023-01-28T00:01:46.502Z,-0.61
2023-01-28T00:04:49.385Z,-0.66
2023-01-28T00:07:52.628Z,-0.78
2023-01-28T00:10:55.872Z,-0.81
2023-01-28T00:13:58.579Z,-0.86
2023-01-28T00:17:02.103Z,-0.85
2023-01-28T00:20:05.824Z,-0.78
2023-01-28T00:23:09.501Z,-0.82
2023-01-28T00:26:14.568Z,-0.87
2023-01-28T00:29:19.304Z,-0.82
2023-01-28T00:32:21.937Z,-0.99
2023-01-28T00:35:24.724Z,-0.78
2023-01-28T00:38:27.986Z,-0.74
2023-01-28T00:41:31.422Z,-0.85
2023-01-28T00:44:34.211Z,-0.81
2023-01-28T00:47:38.914Z,-0.87
2023-01-28T00:50:41.766Z,-0.93
2023-01-28T00:53:44.918Z,-0.76
2023-01-28T00:56:47.843Z,-0.80
2023-01-28T00:59:50.519Z,-0.88
2023-01-28T01:02:54.152Z,-0.85
2023-01-28T01:05:58.351Z,-0.86
2023-01-28T01:09:01.873Z,-0.89
2023-01-28T01:12:04.685Z,-0.92
2023-01-28T01:15:11.094Z,-1.01
2023-01-28T01:18:13.723Z,-1.01
2023-01-28T01:21:19.389Z,-1.14
2023-01-28T01:24:22.033Z,-1.05
2023-01-28T01:27:26.962Z,-1.12
2023-01-28T01:30:29.584Z,-1.07
2023-01-28T01:33:33.369Z,-1.23
2023-01-28T01:36:36.329Z,-1.26
2023-01-28T01:39:39.057Z,-1.29
2023-01-28T01:42:42.093Z,-1.23
2023-01-28T01:45:50.560Z,-1.26
2023-01-28T01:48:53.932Z,-1.21
2023-01-28T01:52:03.828Z,-1.24
2023-01-28T01:55:12.773Z,-1.26
2023-01-28T01:58:19.961Z,-1.22
2023-01-28T02:01:25.234Z,-1.17
2023-01-28T02:04:31.779Z,-1.13
2023-01-28T02:07:35.019Z,-1.29
2023-01-28T02:10:37.646Z,-1.26
2023-01-28T02:13:42.660Z,-1.12
2023-01-28T02:16:45.198Z,-1.22
2023-01-28T02:19:56.646Z,-1.12
2023-01-28T02:23:47.105Z,-1.24
2023-01-28T02:26:56.141Z,-1.30
2023-01-28T02:30:12.927Z,-1.19
2023-01-28T02:33:20.083Z,-1.19
2023-01-28T02:36:25.731Z,-1.21
2023-01-28T02:39:35.932Z,-1.14
2023-01-28T02:42:40.091Z,-1.29
2023-01-28T02:46:01.211Z,-1.13
2023-01-28T02:49:06.968Z,-1.13
2023-01-28T02:52:47.003Z,-1.16
2023-01-28T02:56:03.396Z,-1.28
2023-01-28T02:59:30.886Z,-1.16
2023-01-28T03:02:43.342Z,-1.20
2023-01-28T03:06:04.565Z,-1.17
2023-01-28T03:09:28.183Z,-1.29
2023-01-28T03:12:50.763Z,-1.25
2023-01-28T03:16:12.072Z,-1.26
2023-01-28T03:19:34.204Z,-1.20
2023-01-28T03:22:57.752Z,-1.24
2023-01-28T03:26:20.292Z,-1.20
2023-01-28T03:29:42.751Z,-1.20
2023-01-28T03:33:07.195Z,-1.17
2023-01-28T03:36:29.376Z,-1.17
2023-01-28T03:39:32.510Z,-1.03
2023-01-28T03:42:37.672Z,-0.95
2023-01-28T03:46:00.161Z,-1.00
2023-01-28T03:49:03.322Z,-1.12
2023-01-28T03:52:06.970Z,-1.06
2023-01-28T03:55:14.646Z,-1.08
2023-01-28T03:58:19.669Z,-1.21
2023-01-28T04:01:22.399Z,-1.16
2023-01-28T04:04:25.236Z,-1.16
2023-01-28T04:07:31.303Z,-1.19
2023-01-28T04:10:49.559Z,-1.22
2023-01-28T04:14:00.834Z,-1.17
2023-01-28T04:17:12.309Z,-1.11
2023-01-28T04:20:16.407Z,-1.27
2023-01-28T04:23:19.918Z,-1.31
2023-01-28T04:26:22.877Z,-1.28
2023-01-28T04:29:26.251Z,-1.34
2023-01-28T04:32:34.256Z,-1.33
2023-01-28T04:35:41.667Z,-1.30
2023-01-28T04:38:56.505Z,-1.48
2023-01-28T04:42:12.162Z,-1.42
2023-01-28T04:45:33.338Z,-1.37
2023-01-28T04:48:49.255Z,-1.40
2023-01-28T04:51:57.489Z,-1.44
2023-01-28T04:55:20.277Z,-1.42
2023-01-28T04:58:24.195Z,-1.40
2023-01-28T05:01:29.917Z,-1.42
2023-01-28T05:04:33.344Z,-1.51
2023-01-28T05:07:37.272Z,-1.54
2023-01-28T05:10:40.705Z,-1.49
2023-01-28T05:13:43.296Z,-1.57
2023-01-28T05:16:48.434Z,-1.54
2023-01-28T05:19:51.243Z,-1.47
2023-01-28T05:22:57.705Z,-1.53
2023-01-28T05:26:06.046Z,-1.61
2023-01-28T05:29:10.225Z,-1.57
2023-01-28T05:32:12.992Z,-1.51
2023-01-28T05:35:15.887Z,-1.50
2023-01-28T05:38:20.023Z,-1.55
2023-01-28T05:41:22.781Z,-1.56
2023-01-28T05:44:31.688Z,-1.59
2023-01-28T05:48:00.476Z,-1.54
2023-01-28T05:51:17.444Z,-1.52
2023-01-28T05:54:29.438Z,-1.50
2023-01-28T05:57:35.450Z,-1.51
2023-01-28T06:00:39.967Z,-1.43
2023-01-28T06:03:43.283Z,-1.43
2023-01-28T06:06:46.655Z,-1.37
2023-01-28T06:09:50.223Z,-1.35
2023-01-28T06:12:56.256Z,-1.48
2023-01-28T06:16:37.825Z,-1.54
2023-01-28T06:20:01.085Z,-1.45
2023-01-28T06:23:06.305Z,-1.52
2023-01-28T06:26:09.723Z,-1.55
2023-01-28T06:29:16.174Z,-1.57
2023-01-28T06:32:18.950Z,-1.45
2023-01-28T06:35:22.187Z,-1.50
2023-01-28T06:38:24.953Z,-1.50
2023-01-28T06:41:27.535Z,-1.56
2023-01-28T06:44:30.913Z,-1.44
2023-01-28T06:47:33.720Z,-1.54
2023-01-28T06:50:36.871Z,-1.52
2023-01-28T06:53:39.679Z,-1.44
2023-01-28T06:56:42.732Z,-1.52
2023-01-28T06:59:45.674Z,-1.41
2023-01-28T07:02:48.576Z,-1.39
2023-01-28T07:05:51.503Z,-1.46
2023-01-28T07:08:54.310Z,-1.34
2023-01-28T07:11:57.473Z,-1.36
2023-01-28T07:15:00.567Z,-1.38
2023-01-28T07:18:04.093Z,-1.25
2023-01-28T07:21:06.983Z,-1.24
2023-01-28T07:24:09.924Z,-1.26
2023-01-28T07:27:13.171Z,-1.23
2023-01-28T07:30:18.058Z,-1.17
2023-01-28T07:33:21.324Z,-1.07
2023-01-28T07:36:24.096Z,-0.97
2023-01-28T07:39:27.273Z,-0.97
2023-01-28T07:42:30.232Z,-0.87
2023-01-28T07:45:39.007Z,-0.86
2023-01-28T07:48:41.731Z,-0.71
2023-01-28T07:51:47.255Z,-0.76
2023-01-28T07:54:50.215Z,-0.54
2023-01-28T07:57:58.249Z,-0.59
2023-01-28T08:01:02.122Z,-0.34
2023-01-28T08:04:06.311Z,-0.46
2023-01-28T08:07:10.413Z,-0.31
2023-01-28T08:10:13.955Z,-0.20
2023-01-28T08:13:19.040Z,-0.25
2023-01-28T08:16:21.812Z,0.06
2023-01-28T08:19:24.863Z,-0.14
2023-01-28T08:22:28.134Z,0.04
2023-01-28T08:25:30.901Z,0.20
2023-01-28T08:28:33.583Z,0.14
2023-01-28T08:31:36.542Z,0.25
2023-01-28T08:34:39.719Z,0.25
2023-01-28T08:37:42.360Z,0.18
2023-01-28T08:40:46.023Z,0.03
2023-01-28T08:43:49.103Z,0.09
2023-01-28T08:46:52.945Z,0.31
2023-01-28T08:49:58.817Z,0.12
2023-01-28T08:53:04.920Z,0.20
2023-01-28T08:56:08.034Z,0.43
2023-01-28T08:59:13.892Z,0.47
2023-01-28T09:02:30.732Z,0.79
2023-01-28T09:05:38.414Z,0.95
2023-01-28T09:08:42.016Z,1.08
2023-01-28T09:11:45.417Z,1.28
2023-01-28T09:14:48.333Z,1.43
2023-01-28T09:17:51.520Z,1.65
2023-01-28T09:20:54.113Z,1.52
2023-01-28T09:23:59.130Z,1.51
2023-01-28T09:27:02.536Z,1.14
2023-01-28T09:30:07.609Z,1.52
2023-01-28T09:33:10.785Z,1.58
2023-01-28T09:36:14.644Z,1.80
2023-01-28T09:39:17.637Z,1.83
2023-01-28T09:42:52.305Z,1.66
2023-01-28T09:45:59.821Z,1.62
2023-01-28T09:49:10.385Z,1.46
2023-01-28T09:52:16.453Z,1.40
2023-01-28T09:55:36.796Z,1.43
2023-01-28T09:58:39.720Z,1.58
2023-01-28T10:01:51.170Z,1.62
2023-01-28T10:04:57.091Z,1.51
2023-01-28T10:08:27.020Z,1.26
2023-01-28T10:11:39.355Z,1.49
2023-01-28T10:14:45.161Z,1.47
2023-01-28T10:18:03.865Z,1.30
2023-01-28T10:21:20.336Z,1.61
2023-01-28T10:24:37.329Z,1.37
2023-01-28T10:27:40.651Z,1.28
2023-01-28T10:30:45.333Z,1.39
2023-01-28T10:33:48.979Z,1.28
2023-01-28T10:36:53.000Z,1.54
2023-01-28T10:39:59.222Z,1.32
2023-01-28T10:43:02.078Z,1.45
2023-01-28T10:46:18.102Z,1.37
2023-01-28T10:49:28.552Z,1.44
2023-01-28T10:52:32.627Z,1.19
2023-01-28T10:55:46.538Z,1.37
2023-01-28T10:59:28.332Z,1.21
2023-01-28T11:02:38.173Z,1.06
2023-01-28T11:05:52.643Z,0.78
2023-01-28T11:08:55.973Z,0.99
2023-01-28T11:11:59.891Z,1.09
2023-01-28T11:15:06.142Z,1.02
2023-01-28T11:18:18.630Z,0.86
2023-01-28T11:21:27.045Z,1.09
2023-01-28T11:24:32.711Z,1.07
2023-01-28T11:27:36.227Z,1.28
2023-01-28T11:30:40.992Z,1.39
2023-01-28T11:33:45.268Z,1.40
2023-01-28T11:36:54.647Z,1.62
2023-01-28T11:40:21.968Z,1.57
2023-01-28T11:43:32.088Z,1.72
2023-01-28T11:46:53.351Z,1.56
2023-01-28T11:50:18.222Z,1.56
2023-01-28T11:53:24.389Z,1.76
2023-01-28T11:56:53.991Z,1.78
2023-01-28T12:00:12.681Z,1.66
2023-01-28T12:03:46.293Z,1.67
2023-01-28T12:07:13.597Z,1.71
2023-01-28T12:10:46.931Z,1.49
2023-01-28T12:14:31.638Z,1.49
2023-01-28T12:18:07.054Z,1.36
2023-01-28T12:21:42.259Z,1.67
2023-01-28T12:24:53.742Z,1.49
2023-01-28T12:28:21.375Z,1.45
2023-01-28T12:31:51.848Z,1.26
2023-01-28T12:35:25.939Z,1.52
2023-01-28T12:38:45.105Z,1.31
2023-01-28T12:41:53.829Z,1.17
2023-01-28T12:45:12.580Z,1.21
2023-01-28T12:48:30.245Z,1.16
2023-01-28T12:52:01.481Z,0.97
2023-01-28T12:55:13.675Z,1.13
2023-01-28T12:58:20.759Z,1.06
2023-01-28T13:01:28.981Z,1.05
2023-01-28T13:04:47.848Z,1.06
2023-01-28T13:07:56.478Z,0.97
2023-01-28T13:11:03.355Z,1.05
2023-01-28T13:14:07.196Z,1.24
2023-01-28T13:17:26.913Z,1.21
2023-01-28T13:20:39.705Z,1.28
2023-01-28T13:23:51.038Z,1.19
2023-01-28T13:26:58.773Z,1.16
2023-01-28T13:30:54.341Z,1.12
2023-01-28T13:34:07.862Z,1.11
2023-01-28T13:37:44.811Z,1.11
2023-01-28T13:41:09.292Z,1.15
2023-01-28T13:44:18.842Z,1.14
2023-01-28T13:47:31.590Z,1.12
2023-01-28T13:50:43.365Z,1.19
2023-01-28T13:53:57.090Z,1.13
2023-01-28T13:57:00.163Z,1.04
2023-01-28T14:00:31.441Z,1.04
2023-01-28T14:03:56.652Z,1.11
2023-01-28T14:07:46.714Z,0.97
2023-01-28T14:10:57.178Z,1.02
2023-01-28T14:14:57.847Z,0.97
2023-01-28T14:18:02.031Z,1.03
2023-01-28T14:21:18.431Z,1.00
2023-01-28T14:24:24.912Z,0.99
2023-01-28T14:27:40.692Z,1.03
2023-01-28T14:30:55.586Z,0.88
2023-01-28T14:34:08.040Z,0.78
2023-01-28T14:37:23.029Z,0.56
2023-01-28T14:40:26.320Z,0.61
2023-01-28T14:43:32.193Z,0.46
2023-01-28T14:46:53.348Z,0.52
2023-01-28T14:50:12.867Z,0.46
2023-01-28T14:53:28.649Z,0.46
2023-01-28T14:56:35.717Z,0.43
2023-01-28T14:59:50.151Z,0.44
2023-01-28T15:02:54.446Z,0.26
2023-01-28T15:06:15.202Z,0.20
2023-01-28T15:09:21.157Z,0.10
2023-01-28T15:12:25.405Z,0.05
2023-01-28T15:15:33.342Z,-0.04
2023-01-28T15:18:45.278Z,-0.04
2023-01-28T15:21:56.855Z,-0.03
2023-01-28T15:25:01.910Z,-0.05
2023-01-28T15:28:05.418Z,-0.01
2023-01-28T15:31:22.250Z,-0.08
2023-01-28T15:34:31.607Z,-0.04
2023-01-28T15:37:36.291Z,-0.15
2023-01-28T15:40:46.094Z,-0.14
2023-01-28T15:43:51.516Z,-0.16
2023-01-28T15:46:59.855Z,-0.14
2023-01-28T15:50:05.702Z,-0.19
2023-01-28T15:53:12.227Z,-0.14
2023-01-28T15:56:16.542Z,-0.21
2023-01-28T15:59:26.776Z,-0.28
2023-01-28T16:02:32.886Z,-0.17
2023-01-28T16:05:43.397Z,-0.14
2023-01-28T16:09:04.952Z,-0.26
2023-01-28T16:12:13.900Z,-0.25
2023-01-28T16:15:21.302Z,-0.38
2023-01-28T16:18:36.251Z,-0.37
2023-01-28T16:21:54.162Z,-0.26
2023-01-28T16:24:57.022Z,-0.23
2023-01-28T16:28:03.247Z,-0.50
2023-01-28T16:31:07.164Z,-0.33
2023-01-28T16:37:15.989Z,-0.34
2023-01-28T16:40:24.031Z,-0.32
2023-01-28T16:43:30.006Z,-0.39
2023-01-28T16:46:35.783Z,-0.50
2023-01-28T16:49:41.875Z,-0.42
2023-01-28T16:52:47.610Z,-0.53
2023-01-28T16:55:54.541Z,-0.42
2023-01-28T16:58:58.312Z,-0.48
2023-01-28T17:02:04.943Z,-0.25
2023-01-28T17:05:13.933Z,-0.28
2023-01-28T17:08:20.764Z,-0.18
2023-01-28T17:11:24.412Z,-0.24
2023-01-28T17:14:31.738Z,-0.28
2023-01-28T17:17:37.451Z,-0.32
2023-01-28T17:20:41.727Z,-0.33
2023-01-28T17:23:46.605Z,-0.36
2023-01-28T17:26:55.277Z,-0.35
2023-01-28T17:29:58.811Z,-0.38
2023-01-28T17:33:12.372Z,-0.48
2023-01-28T17:36:16.105Z,-0.57
2023-01-28T17:39:21.000Z,-0.52
2023-01-28T17:42:25.845Z,-0.61
2023-01-28T17:45:33.008Z,-0.57
2023-01-28T17:48:37.784Z,-0.63
2023-01-28T17:51:41.846Z,-0.56
2023-01-28T17:54:48.323Z,-0.66
2023-01-28T17:57:54.216Z,-0.52
2023-01-28T18:00:58.090Z,-0.52
2023-01-28T18:04:03.613Z,-0.58
2023-01-28T18:07:15.006Z,-0.63
2023-01-28T18:10:22.776Z,-0.70
2023-01-28T18:13:35.229Z,-0.64
2023-01-28T18:16:39.196Z,-0.74
2023-01-28T18:19:42.407Z,-0.63
2023-01-28T18:22:45.896Z,-0.76
2023-01-28T18:25:49.240Z,-0.62
2023-01-28T18:28:55.092Z,-0.77
2023-01-28T18:32:07.213Z,-0.74
2023-01-28T18:35:12.556Z,-0.70
2023-01-28T18:38:16.427Z,-0.68
2023-01-28T18:41:20.171Z,-0.76
2023-01-28T18:44:25.113Z,-0.66
2023-01-28T18:47:30.506Z,-0.87
2023-01-28T18:50:38.269Z,-0.81
2023-01-28T18:53:43.761Z,-0.83
2023-01-28T18:56:49.347Z,-0.75
2023-01-28T18:59:54.451Z,-0.83
2023-01-28T19:02:57.405Z,-0.91
2023-01-28T19:06:15.826Z,-0.95
2023-01-28T19:09:20.483Z,-0.79
2023-01-28T19:12:24.506Z,-0.94
2023-01-28T19:15:31.939Z,-0.91
2023-01-28T19:18:36.035Z,-0.90
2023-01-28T19:21:39.246Z,-0.87
2023-01-28T19:24:44.752Z,-0.84
2023-01-28T19:27:48.413Z,-0.99
2023-01-28T19:30:52.500Z,-1.03
2023-01-28T19:33:57.849Z,-0.98
2023-01-28T19:37:03.997Z,-1.05
2023-01-28T19:40:11.377Z,-1.01
2023-01-28T19:43:14.134Z,-1.10
2023-01-28T19:46:20.748Z,-1.15
2023-01-28T19:49:26.335Z,-1.24
2023-01-28T19:52:31.592Z,-1.24
2023-01-28T19:55:38.879Z,-1.30
2023-01-28T19:58:44.908Z,-1.28
2023-01-28T20:01:48.054Z,-1.30
2023-01-28T20:05:00.759Z,-1.33
2023-01-28T20:08:05.163Z,-1.32
2023-01-28T20:11:15.530Z,-1.33
2023-01-28T20:14:21.258Z,-1.31
2023-01-28T20:17:24.220Z,-1.29
2023-01-28T20:20:28.843Z,-1.26
2023-01-28T20:23:32.216Z,-1.29
2023-01-28T20:26:38.185Z,-1.31
2023-01-28T20:29:43.416Z,-1.27
2023-01-28T20:32:47.022Z,-1.30
2023-01-28T20:35:52.303Z,-1.23
2023-01-28T20:38:55.850Z,-1.29
2023-01-28T20:42:00.857Z,-1.32
2023-01-28T20:45:06.607Z,-1.35
2023-01-28T20:48:10.497Z,-1.31
2023-01-28T20:51:19.520Z,-1.34
2023-01-28T20:54:26.613Z,-1.27
2023-01-28T20:57:29.645Z,-1.27
2023-01-28T21:00:34.400Z,-1.27
2023-01-28T21:03:38.430Z,-1.25
2023-01-28T21:06:46.087Z,-1.21
2023-01-28T21:09:53.119Z,-1.23
2023-01-28T21:12:58.968Z,-1.20
2023-01-28T21:16:03.734Z,-1.24
2023-01-28T21:19:08.185Z,-1.20
2023-01-28T21:22:12.819Z,-1.26
2023-01-28T21:25:18.802Z,-1.13
2023-01-28T21:28:27.563Z,-1.18
2023-01-28T21:31:33.835Z,-1.15
2023-01-28T21:34:37.209Z,-1.11
2023-01-28T21:37:46.664Z,-1.04
2023-01-28T21:40:53.572Z,-1.04
2023-01-28T21:44:00.932Z,-1.04
2023-01-28T21:47:04.981Z,-0.98
2023-01-28T21:50:14.161Z,-1.01
2023-01-28T21:53:21.042Z,-1.05
2023-01-28T21:56:26.967Z,-1.01
2023-01-28T21:59:51.499Z,-1.01
2023-01-28T22:02:55.499Z,-0.86
2023-01-28T22:05:58.930Z,-0.77
2023-01-28T22:09:05.266Z,-0.80
2023-01-28T22:12:13.882Z,-0.93
2023-01-28T22:15:21.553Z,-0.97
2023-01-28T22:18:25.503Z,-1.00
2023-01-28T22:21:31.608Z,-1.03
2023-01-28T22:24:37.846Z,-0.92
2023-01-28T22:27:41.581Z,-1.03
2023-01-28T22:30:46.151Z,-0.96
2023-01-28T22:33:49.706Z,-0.96
2023-01-28T22:36:53.701Z,-1.01
2023-01-28T22:39:56.866Z,-0.97
2023-01-28T22:43:00.967Z,-0.93
2023-01-28T22:46:04.808Z,-0.98
2023-01-28T22:49:08.759Z,-0.94
2023-01-28T22:52:11.890Z,-0.96
2023-01-28T22:55:17.074Z,-0.91
2023-01-28T22:58:20.268Z,-0.87
2023-01-28T23:01:24.647Z,-0.92
2023-01-28T23:04:28.131Z,-0.89
2023-01-28T23:07:31.821Z,-0.88
2023-01-28T23:10:34.455Z,-1.01
2023-01-28T23:14:03.190Z,-0.93
2023-01-28T23:17:39.377Z,-0.89
2023-01-28T23:21:01.051Z,-0.96
2023-01-28T23:24:19.951Z,-0.90
2023-01-28T23:27:24.052Z,-0.95
2023-01-28T23:30:28.654Z,-0.84
2023-01-28T23:33:31.795Z,-0.86
2023-01-28T23:36:36.138Z,-0.91
2023-01-28T23:39:40.041Z,-0.88
2023-01-28T23:42:42.929Z,-0.88
2023-01-28T23:45:45.583Z,-0.90
2023-01-28T23:48:49.731Z,-0.81
2023-01-28T23:51:52.552Z,-0.92
2023-01-28T23:54:55.428Z,-0.88
2023-01-28T23:57:58.163Z,-0.88
